AFR76BK LFLL-LFBZ
Flight info
| Callsign | AFR76BK |
|---|---|
| Flight time | 1h 1m |
| Altitude | 33000 |
| Route | REPSI DCT LERGA DCT MINSO DCT NARAK DCT AGN DCT TBO/N0405F340 DCT ORTEZ/N0310F190 G17 SOVOS |
| Aircraft | E170/M-SDE3GILORVWY/S |
Departure
| Time | 2026-05-06 10:53 |
|---|---|
| Airport | Lyon Saint-Exupéry Airport (LFLL) |
Arrival
| Time | 2026-05-06 11:55 |
|---|---|
| Airport | Biarritz Pays Basque airport (LFBZ) |
| Time | Latitude | Longitude | Altitude | Speed | Heading |
|---|---|---|---|---|---|
| 2026-05-06 10:42 | 45.71969 | 5.08043 | 794 ft | 3 kts | 239° |
| 2026-05-06 10:42 | 45.71975 | 5.08058 | 794 ft | 2 kts | 243° |
| 2026-05-06 10:42 | 45.71983 | 5.08088 | 794 ft | 4 kts | 257° |
| 2026-05-06 10:43 | 45.71985 | 5.08124 | 794 ft | 4 kts | 273° |
| 2026-05-06 10:43 | 45.71982 | 5.08161 | 794 ft | 4 kts | 280° |
| 2026-05-06 10:43 | 45.71976 | 5.08196 | 794 ft | 4 kts | 292° |
| 2026-05-06 10:44 | 45.71947 | 5.08224 | 795 ft | 1 kts | 15° |
| 2026-05-06 10:47 | 45.71948 | 5.08224 | 795 ft | 2 kts | 15° |
| 2026-05-06 10:47 | 45.71986 | 5.08239 | 795 ft | 9 kts | 15° |
| 2026-05-06 10:48 | 45.72060 | 5.08270 | 795 ft | 14 kts | 17° |
| 2026-05-06 10:48 | 45.72165 | 5.08316 | 796 ft | 18 kts | 8° |
| 2026-05-06 10:48 | 45.72263 | 5.08358 | 796 ft | 11 kts | 75° |
| 2026-05-06 10:48 | 45.72290 | 5.08415 | 797 ft | 7 kts | 10° |
| 2026-05-06 10:49 | 45.72376 | 5.08412 | 796 ft | 17 kts | 355° |
| 2026-05-06 10:49 | 45.72520 | 5.08394 | 794 ft | 23 kts | 355° |
| 2026-05-06 10:49 | 45.72692 | 5.08374 | 789 ft | 27 kts | 358° |
| 2026-05-06 10:49 | 45.72890 | 5.08353 | 788 ft | 30 kts | 355° |
| 2026-05-06 10:50 | 45.73108 | 5.08313 | 783 ft | 33 kts | 355° |
| 2026-05-06 10:50 | 45.73340 | 5.08291 | 780 ft | 34 kts | 354° |
| 2026-05-06 10:50 | 45.73577 | 5.08264 | 777 ft | 34 kts | 355° |
| 2026-05-06 10:50 | 45.73818 | 5.08237 | 773 ft | 35 kts | 356° |
| 2026-05-06 10:51 | 45.74058 | 5.08221 | 770 ft | 35 kts | 14° |
| 2026-05-06 10:51 | 45.74269 | 5.08300 | 770 ft | 22 kts | 12° |
| 2026-05-06 10:51 | 45.74347 | 5.08431 | 769 ft | 13 kts | 83° |
| 2026-05-06 10:51 | 45.74359 | 5.08557 | 769 ft | 13 kts | 95° |
| 2026-05-06 10:52 | 45.74306 | 5.08639 | 771 ft | 12 kts | 167° |
| 2026-05-06 10:52 | 45.74282 | 5.08644 | 771 ft | 1 kts | 174° |
| 2026-05-06 10:52 | 45.74185 | 5.08656 | 771 ft | 45 kts | 175° |
| 2026-05-06 10:52 | 45.73610 | 5.08727 | 777 ft | 118 kts | 174° |
| 2026-05-06 10:53 | 45.72606 | 5.08849 | 958 ft | 163 kts | 173° |
| 2026-05-06 10:53 | 45.71459 | 5.09027 | 1898 ft | 162 kts | 173° |
| 2026-05-06 10:53 | 45.70379 | 5.09187 | 2920 ft | 158 kts | 177° |
| 2026-05-06 10:53 | 45.69195 | 5.09333 | 3359 ft | 181 kts | 179° |
| 2026-05-06 10:54 | 45.67873 | 5.09378 | 3903 ft | 200 kts | 181° |
| 2026-05-06 10:54 | 45.66410 | 5.09401 | 4522 ft | 221 kts | 180° |
| 2026-05-06 10:54 | 45.64813 | 5.09607 | 5159 ft | 238 kts | 179° |
| 2026-05-06 10:54 | 45.63162 | 5.09162 | 5778 ft | 249 kts | 202° |
| 2026-05-06 10:55 | 45.61567 | 5.08078 | 6485 ft | 258 kts | 210° |
| 2026-05-06 10:55 | 45.60142 | 5.06519 | 7255 ft | 261 kts | 230° |
| 2026-05-06 10:55 | 45.59146 | 5.04336 | 8021 ft | 265 kts | 240° |
| 2026-05-06 10:55 | 45.58369 | 5.02021 | 8797 ft | 268 kts | 244° |
| 2026-05-06 10:56 | 45.57651 | 4.99513 | 9571 ft | 272 kts | 247° |
| 2026-05-06 10:56 | 45.57097 | 4.96952 | 10177 ft | 279 kts | 253° |
| 2026-05-06 10:56 | 45.56610 | 4.94146 | 10504 ft | 295 kts | 254° |
| 2026-05-06 10:56 | 45.56176 | 4.91240 | 11020 ft | 302 kts | 256° |
| 2026-05-06 10:57 | 45.55793 | 4.88279 | 11687 ft | 305 kts | 257° |
| 2026-05-06 10:57 | 45.55505 | 4.85298 | 12358 ft | 310 kts | 262° |
| 2026-05-06 10:57 | 45.55325 | 4.82305 | 13057 ft | 313 kts | 262° |
| 2026-05-06 10:57 | 45.55148 | 4.79101 | 13824 ft | 316 kts | 262° |
| 2026-05-06 10:58 | 45.54979 | 4.75962 | 14485 ft | 320 kts | 262° |
| 2026-05-06 10:58 | 45.54806 | 4.72777 | 15194 ft | 323 kts | 262° |
| 2026-05-06 10:58 | 45.54632 | 4.69575 | 15911 ft | 326 kts | 262° |
| 2026-05-06 10:58 | 45.54453 | 4.66326 | 16632 ft | 329 kts | 262° |
| 2026-05-06 10:59 | 45.54272 | 4.63060 | 17381 ft | 333 kts | 262° |
| 2026-05-06 10:59 | 45.54089 | 4.59748 | 18135 ft | 336 kts | 262° |
| 2026-05-06 10:59 | 45.53902 | 4.56400 | 18834 ft | 340 kts | 262° |
| 2026-05-06 10:59 | 45.53712 | 4.53021 | 19505 ft | 344 kts | 262° |
| 2026-05-06 11:00 | 45.53519 | 4.49600 | 20201 ft | 348 kts | 262° |
| 2026-05-06 11:00 | 45.53323 | 4.46141 | 20868 ft | 352 kts | 262° |
| 2026-05-06 11:00 | 45.53123 | 4.42649 | 21497 ft | 355 kts | 262° |
| 2026-05-06 11:00 | 45.52920 | 4.39119 | 22119 ft | 359 kts | 261° |
| 2026-05-06 11:01 | 45.52714 | 4.35556 | 22749 ft | 363 kts | 261° |
| 2026-05-06 11:01 | 45.52420 | 4.31968 | 23359 ft | 363 kts | 252° |
| 2026-05-06 11:01 | 45.51569 | 4.28590 | 23928 ft | 363 kts | 243° |
| 2026-05-06 11:01 | 45.50453 | 4.25360 | 24510 ft | 364 kts | 239° |
| 2026-05-06 11:02 | 45.49232 | 4.22181 | 25085 ft | 367 kts | 238° |
| 2026-05-06 11:02 | 45.47935 | 4.19044 | 25620 ft | 368 kts | 234° |
| 2026-05-06 11:02 | 45.46469 | 4.16029 | 26134 ft | 371 kts | 232° |
| 2026-05-06 11:02 | 45.44976 | 4.13027 | 26653 ft | 374 kts | 232° |
| 2026-05-06 11:03 | 45.43458 | 4.10007 | 27171 ft | 376 kts | 232° |
| 2026-05-06 11:03 | 45.41924 | 4.06966 | 27690 ft | 379 kts | 232° |
| 2026-05-06 11:03 | 45.40386 | 4.03916 | 28174 ft | 381 kts | 232° |
| 2026-05-06 11:03 | 45.38830 | 4.00835 | 28664 ft | 384 kts | 232° |
| 2026-05-06 11:04 | 45.37271 | 3.97751 | 29139 ft | 386 kts | 232° |
| 2026-05-06 11:04 | 45.35696 | 3.94639 | 29605 ft | 389 kts | 232° |
| 2026-05-06 11:04 | 45.34107 | 3.91503 | 29880 ft | 395 kts | 232° |
| 2026-05-06 11:04 | 45.32488 | 3.88309 | 30199 ft | 398 kts | 232° |
| 2026-05-06 11:05 | 45.30873 | 3.85127 | 30667 ft | 397 kts | 232° |
| 2026-05-06 11:05 | 45.29257 | 3.81949 | 31135 ft | 395 kts | 232° |
| 2026-05-06 11:05 | 45.27639 | 3.78813 | 31565 ft | 394 kts | 231° |
| 2026-05-06 11:05 | 45.26042 | 3.75656 | 31967 ft | 394 kts | 233° |
| 2026-05-06 11:06 | 45.24477 | 3.72479 | 32389 ft | 392 kts | 233° |
| 2026-05-06 11:06 | 45.22913 | 3.69300 | 32771 ft | 392 kts | 233° |
| 2026-05-06 11:06 | 45.21374 | 3.66167 | 32872 ft | 385 kts | 233° |
| 2026-05-06 11:07 | 45.18261 | 3.59854 | 32921 ft | 396 kts | 233° |
| 2026-05-06 11:07 | 45.15101 | 3.53454 | 32913 ft | 396 kts | 233° |
| 2026-05-06 11:08 | 45.11943 | 3.47077 | 32914 ft | 396 kts | 233° |
| 2026-05-06 11:08 | 45.08782 | 3.40709 | 32923 ft | 395 kts | 233° |
| 2026-05-06 11:09 | 45.05605 | 3.34322 | 32913 ft | 394 kts | 233° |
| 2026-05-06 11:09 | 45.02444 | 3.27982 | 32923 ft | 394 kts | 233° |
| 2026-05-06 11:10 | 44.99285 | 3.21658 | 32919 ft | 394 kts | 233° |
| 2026-05-06 11:10 | 44.96146 | 3.15390 | 32928 ft | 393 kts | 233° |
| 2026-05-06 11:11 | 44.92986 | 3.09094 | 32929 ft | 394 kts | 233° |
| 2026-05-06 11:11 | 44.89796 | 3.02752 | 32943 ft | 393 kts | 233° |
| 2026-05-06 11:12 | 44.86632 | 2.96513 | 32939 ft | 393 kts | 232° |
| 2026-05-06 11:12 | 44.83564 | 2.90151 | 32953 ft | 394 kts | 236° |
| 2026-05-06 11:13 | 44.80575 | 2.83660 | 32938 ft | 395 kts | 236° |
| 2026-05-06 11:13 | 44.77582 | 2.77164 | 32950 ft | 396 kts | 236° |
| 2026-05-06 11:14 | 44.74585 | 2.70673 | 32948 ft | 396 kts | 236° |
| 2026-05-06 11:14 | 44.71581 | 2.64187 | 32950 ft | 396 kts | 236° |
| 2026-05-06 11:15 | 44.68570 | 2.57699 | 32941 ft | 396 kts | 236° |
| 2026-05-06 11:15 | 44.65558 | 2.51225 | 32941 ft | 396 kts | 236° |
| 2026-05-06 11:16 | 44.62536 | 2.44743 | 32948 ft | 396 kts | 236° |
| 2026-05-06 11:16 | 44.59512 | 2.38274 | 32968 ft | 397 kts | 236° |
| 2026-05-06 11:17 | 44.56485 | 2.31811 | 32973 ft | 396 kts | 236° |
| 2026-05-06 11:17 | 44.53458 | 2.25364 | 32959 ft | 396 kts | 236° |
| 2026-05-06 11:18 | 44.50430 | 2.18928 | 32969 ft | 396 kts | 236° |
| 2026-05-06 11:18 | 44.47400 | 2.12501 | 32956 ft | 396 kts | 236° |
| 2026-05-06 11:19 | 44.44386 | 2.06124 | 32955 ft | 395 kts | 236° |
| 2026-05-06 11:19 | 44.41349 | 1.99712 | 32965 ft | 395 kts | 236° |
| 2026-05-06 11:20 | 44.38306 | 1.93302 | 32950 ft | 395 kts | 236° |
| 2026-05-06 11:20 | 44.35269 | 1.86919 | 32966 ft | 395 kts | 236° |
| 2026-05-06 11:21 | 44.32223 | 1.80531 | 32961 ft | 395 kts | 236° |
| 2026-05-06 11:21 | 44.29187 | 1.74144 | 32953 ft | 395 kts | 237° |
| 2026-05-06 11:22 | 44.26224 | 1.67688 | 32955 ft | 395 kts | 237° |
| 2026-05-06 11:22 | 44.23270 | 1.61257 | 32967 ft | 396 kts | 237° |
| 2026-05-06 11:23 | 44.20293 | 1.54792 | 32949 ft | 396 kts | 237° |
| 2026-05-06 11:23 | 44.17315 | 1.48340 | 32963 ft | 397 kts | 237° |
| 2026-05-06 11:24 | 44.14329 | 1.41886 | 32984 ft | 397 kts | 237° |
| 2026-05-06 11:24 | 44.11337 | 1.35432 | 32950 ft | 397 kts | 237° |
| 2026-05-06 11:25 | 44.08344 | 1.28990 | 32958 ft | 396 kts | 237° |
| 2026-05-06 11:25 | 44.05348 | 1.22557 | 32950 ft | 397 kts | 237° |
| 2026-05-06 11:26 | 44.02352 | 1.16139 | 32958 ft | 396 kts | 237° |
| 2026-05-06 11:26 | 43.99362 | 1.09748 | 32947 ft | 396 kts | 237° |
| 2026-05-06 11:27 | 43.96373 | 1.03371 | 32736 ft | 397 kts | 237° |
| 2026-05-06 11:27 | 43.94852 | 1.00134 | 32419 ft | 395 kts | 237° |
| 2026-05-06 11:27 | 43.93349 | 0.96935 | 32102 ft | 396 kts | 237° |
| 2026-05-06 11:27 | 43.91864 | 0.93781 | 31788 ft | 396 kts | 237° |
| 2026-05-06 11:28 | 43.90303 | 0.90624 | 31425 ft | 397 kts | 233° |
| 2026-05-06 11:28 | 43.88578 | 0.87632 | 31065 ft | 398 kts | 231° |
| 2026-05-06 11:28 | 43.86774 | 0.84728 | 30714 ft | 399 kts | 227° |
| 2026-05-06 11:28 | 43.84807 | 0.82023 | 30365 ft | 399 kts | 225° |
| 2026-05-06 11:29 | 43.82807 | 0.79344 | 30009 ft | 400 kts | 225° |
| 2026-05-06 11:29 | 43.80794 | 0.76681 | 29581 ft | 400 kts | 225° |
| 2026-05-06 11:29 | 43.78779 | 0.74023 | 29156 ft | 399 kts | 225° |
| 2026-05-06 11:29 | 43.76772 | 0.71379 | 28735 ft | 397 kts | 225° |
| 2026-05-06 11:30 | 43.74782 | 0.68757 | 28322 ft | 394 kts | 225° |
| 2026-05-06 11:30 | 43.72800 | 0.66149 | 27910 ft | 392 kts | 224° |
| 2026-05-06 11:30 | 43.70802 | 0.63522 | 27502 ft | 390 kts | 225° |
| 2026-05-06 11:30 | 43.68839 | 0.60944 | 27108 ft | 389 kts | 225° |
| 2026-05-06 11:31 | 43.66910 | 0.58411 | 26716 ft | 387 kts | 224° |
| 2026-05-06 11:31 | 43.64962 | 0.55859 | 26331 ft | 385 kts | 224° |
| 2026-05-06 11:31 | 43.63029 | 0.53326 | 25944 ft | 383 kts | 224° |
| 2026-05-06 11:31 | 43.61099 | 0.50800 | 25567 ft | 382 kts | 224° |
| 2026-05-06 11:32 | 43.59173 | 0.48281 | 25192 ft | 380 kts | 224° |
| 2026-05-06 11:32 | 43.57880 | 0.46592 | 24942 ft | 379 kts | 224° |
| 2026-05-06 11:32 | 43.55350 | 0.43291 | 24468 ft | 377 kts | 224° |
| 2026-05-06 11:32 | 43.54066 | 0.41617 | 24230 ft | 376 kts | 224° |
| 2026-05-06 11:33 | 43.52196 | 0.39178 | 24062 ft | 374 kts | 224° |
| 2026-05-06 11:33 | 43.50281 | 0.36685 | 24014 ft | 375 kts | 224° |
| 2026-05-06 11:33 | 43.48433 | 0.34281 | 23989 ft | 376 kts | 224° |
| 2026-05-06 11:33 | 43.46527 | 0.31804 | 23651 ft | 376 kts | 224° |
| 2026-05-06 11:34 | 43.44637 | 0.29350 | 23243 ft | 372 kts | 224° |
| 2026-05-06 11:34 | 43.42761 | 0.26915 | 22824 ft | 369 kts | 224° |
| 2026-05-06 11:34 | 43.40927 | 0.24539 | 22420 ft | 367 kts | 224° |
| 2026-05-06 11:34 | 43.39095 | 0.22167 | 22024 ft | 365 kts | 224° |
| 2026-05-06 11:35 | 43.37253 | 0.19784 | 21627 ft | 363 kts | 224° |
| 2026-05-06 11:35 | 43.35499 | 0.17319 | 21225 ft | 360 kts | 234° |
| 2026-05-06 11:35 | 43.34461 | 0.14239 | 20832 ft | 357 kts | 256° |
| 2026-05-06 11:35 | 43.34134 | 0.11379 | 20502 ft | 356 kts | 263° |
| 2026-05-06 11:36 | 43.33939 | 0.07912 | 20137 ft | 354 kts | 265° |
| 2026-05-06 11:36 | 43.33817 | 0.04539 | 19691 ft | 352 kts | 266° |
| 2026-05-06 11:36 | 43.33810 | 0.01194 | 19253 ft | 349 kts | 271° |
| 2026-05-06 11:36 | 43.33915 | -0.02113 | 18830 ft | 343 kts | 273° |
| 2026-05-06 11:37 | 43.34047 | -0.05376 | 18399 ft | 340 kts | 274° |
| 2026-05-06 11:37 | 43.34180 | -0.08603 | 17939 ft | 338 kts | 274° |
| 2026-05-06 11:37 | 43.34311 | -0.11830 | 17469 ft | 337 kts | 273° |
| 2026-05-06 11:37 | 43.34439 | -0.15024 | 16932 ft | 334 kts | 273° |
| 2026-05-06 11:38 | 43.34566 | -0.18197 | 16405 ft | 331 kts | 273° |
| 2026-05-06 11:38 | 43.34689 | -0.21344 | 15890 ft | 328 kts | 273° |
| 2026-05-06 11:38 | 43.34812 | -0.24462 | 15385 ft | 326 kts | 273° |
| 2026-05-06 11:38 | 43.34932 | -0.27558 | 14896 ft | 324 kts | 273° |
| 2026-05-06 11:39 | 43.35051 | -0.30635 | 14418 ft | 322 kts | 273° |
| 2026-05-06 11:39 | 43.35168 | -0.33696 | 13946 ft | 320 kts | 273° |
| 2026-05-06 11:39 | 43.35283 | -0.36729 | 13426 ft | 317 kts | 273° |
| 2026-05-06 11:39 | 43.35396 | -0.39735 | 12932 ft | 314 kts | 273° |
| 2026-05-06 11:40 | 43.35509 | -0.42723 | 12463 ft | 312 kts | 273° |
| 2026-05-06 11:40 | 43.35618 | -0.45647 | 12001 ft | 310 kts | 273° |
| 2026-05-06 11:40 | 43.35727 | -0.48587 | 11572 ft | 307 kts | 273° |
| 2026-05-06 11:40 | 43.35834 | -0.51492 | 11194 ft | 300 kts | 273° |
| 2026-05-06 11:41 | 43.35936 | -0.54301 | 10808 ft | 290 kts | 273° |
| 2026-05-06 11:41 | 43.36035 | -0.57027 | 10426 ft | 282 kts | 273° |
| 2026-05-06 11:41 | 43.36131 | -0.59687 | 10051 ft | 276 kts | 274° |
| 2026-05-06 11:41 | 43.36225 | -0.62300 | 9663 ft | 272 kts | 273° |
| 2026-05-06 11:42 | 43.36316 | -0.64869 | 9243 ft | 266 kts | 273° |
| 2026-05-06 11:42 | 43.36406 | -0.67384 | 8837 ft | 262 kts | 273° |
| 2026-05-06 11:42 | 43.36499 | -0.69861 | 8446 ft | 259 kts | 274° |
| 2026-05-06 11:42 | 43.36653 | -0.72316 | 8053 ft | 257 kts | 277° |
| 2026-05-06 11:43 | 43.36914 | -0.74739 | 7668 ft | 256 kts | 279° |
| 2026-05-06 11:43 | 43.37193 | -0.77139 | 7463 ft | 254 kts | 279° |
| 2026-05-06 11:43 | 43.37476 | -0.79534 | 7281 ft | 254 kts | 279° |
| 2026-05-06 11:44 | 43.38034 | -0.84328 | 7128 ft | 254 kts | 279° |
| 2026-05-06 11:44 | 43.38316 | -0.86726 | 7112 ft | 253 kts | 280° |
| 2026-05-06 11:44 | 43.38636 | -0.89125 | 7107 ft | 256 kts | 280° |
| 2026-05-06 11:44 | 43.38948 | -0.91526 | 6983 ft | 255 kts | 280° |
| 2026-05-06 11:45 | 43.39542 | -0.93807 | 6811 ft | 254 kts | 295° |
| 2026-05-06 11:45 | 43.40371 | -0.95957 | 6617 ft | 254 kts | 297° |
| 2026-05-06 11:45 | 43.41241 | -0.98069 | 6445 ft | 253 kts | 298° |
| 2026-05-06 11:45 | 43.42061 | -1.00190 | 6220 ft | 247 kts | 291° |
| 2026-05-06 11:46 | 43.42529 | -1.02400 | 5955 ft | 238 kts | 282° |
| 2026-05-06 11:46 | 43.42859 | -1.04614 | 5646 ft | 234 kts | 281° |
| 2026-05-06 11:46 | 43.43120 | -1.06503 | 5380 ft | 231 kts | 281° |
| 2026-05-06 11:46 | 43.43497 | -1.08631 | 5071 ft | 226 kts | 284° |
| 2026-05-06 11:47 | 43.43902 | -1.10654 | 4738 ft | 213 kts | 285° |
| 2026-05-06 11:47 | 43.44297 | -1.12571 | 4407 ft | 204 kts | 285° |
| 2026-05-06 11:47 | 43.44681 | -1.14422 | 4082 ft | 199 kts | 285° |
| 2026-05-06 11:47 | 43.45050 | -1.16244 | 3772 ft | 196 kts | 285° |
| 2026-05-06 11:48 | 43.45407 | -1.17991 | 3488 ft | 182 kts | 285° |
| 2026-05-06 11:48 | 43.45743 | -1.19607 | 3274 ft | 174 kts | 285° |
| 2026-05-06 11:48 | 43.46228 | -1.21127 | 3096 ft | 175 kts | 301° |
| 2026-05-06 11:48 | 43.46868 | -1.22553 | 2913 ft | 175 kts | 290° |
| 2026-05-06 11:49 | 43.47056 | -1.24170 | 2683 ft | 168 kts | 270° |
| 2026-05-06 11:49 | 43.47049 | -1.25699 | 2541 ft | 152 kts | 271° |
| 2026-05-06 11:49 | 43.47067 | -1.27123 | 2483 ft | 145 kts | 270° |
| 2026-05-06 11:49 | 43.47056 | -1.28495 | 2482 ft | 142 kts | 270° |
| 2026-05-06 11:50 | 43.47044 | -1.29862 | 2484 ft | 144 kts | 270° |
| 2026-05-06 11:50 | 43.47034 | -1.31243 | 2520 ft | 147 kts | 269° |
| 2026-05-06 11:50 | 43.47022 | -1.32645 | 2595 ft | 144 kts | 269° |
| 2026-05-06 11:50 | 43.47011 | -1.34006 | 2613 ft | 146 kts | 270° |
| 2026-05-06 11:51 | 43.46998 | -1.35414 | 2437 ft | 148 kts | 269° |
| 2026-05-06 11:51 | 43.46987 | -1.36812 | 2291 ft | 142 kts | 270° |
| 2026-05-06 11:51 | 43.46974 | -1.38148 | 2124 ft | 139 kts | 270° |
| 2026-05-06 11:51 | 43.46961 | -1.39449 | 1923 ft | 133 kts | 270° |
| 2026-05-06 11:52 | 43.46952 | -1.40681 | 1756 ft | 123 kts | 270° |
| 2026-05-06 11:52 | 43.46941 | -1.41861 | 1569 ft | 124 kts | 270° |
| 2026-05-06 11:52 | 43.46930 | -1.42995 | 1397 ft | 113 kts | 270° |
| 2026-05-06 11:52 | 43.46920 | -1.44054 | 1246 ft | 109 kts | 270° |
| 2026-05-06 11:53 | 43.46910 | -1.45086 | 1103 ft | 109 kts | 270° |
| 2026-05-06 11:53 | 43.46901 | -1.46148 | 951 ft | 112 kts | 269° |
| 2026-05-06 11:53 | 43.46890 | -1.47224 | 816 ft | 113 kts | 266° |
| 2026-05-06 11:53 | 43.46874 | -1.48306 | 676 ft | 112 kts | 266° |
| 2026-05-06 11:54 | 43.46853 | -1.49348 | 512 ft | 106 kts | 270° |
| 2026-05-06 11:54 | 43.46861 | -1.50377 | 336 ft | 112 kts | 269° |
| 2026-05-06 11:54 | 43.46854 | -1.51420 | 228 ft | 101 kts | 268° |
| 2026-05-06 11:54 | 43.46836 | -1.52277 | 233 ft | 80 kts | 270° |
| 2026-05-06 11:55 | 43.46829 | -1.52903 | 245 ft | 30 kts | 269° |
| 2026-05-06 11:55 | 43.46835 | -1.53090 | 250 ft | 13 kts | 290° |
| 2026-05-06 11:55 | 43.46894 | -1.53158 | 251 ft | 7 kts | 339° |
| 2026-05-06 11:55 | 43.46941 | -1.53189 | 251 ft | 6 kts | 333° |
| 2026-05-06 11:56 | 43.46968 | -1.53207 | 251 ft | 5 kts | 335° |
| 2026-05-06 11:56 | 43.47009 | -1.53232 | 251 ft | 7 kts | 345° |
| 2026-05-06 11:56 | 43.47053 | -1.53236 | 251 ft | 3 kts | 359° |
| 2026-05-06 11:56 | 43.47070 | -1.53236 | 251 ft | 1 kts | 359° |
| 2026-05-06 11:57 | 43.47075 | -1.53236 | 251 ft | 0 kts | 359° |